^^
No Wait Weather (KNEBELLE1) Station Historical Data
Daily Summary for May 2, 2019 Units:  English    Metric   Both
Daily Weekly Monthly Yearly Custom
  High: Low: Average:
Temperature: 61 °F 42.5 °F 51.7 °F
Dew Point: 43.63 °F 28.83 °F 38.6 °F
Humidity: 93% 30% 65%
Wind Speed: 5mph 0mph 0.3mph
Wind Gust: 9mph - -
Wind- - ENE
Pressure: 30.07 in 29.93 in -
Precipitation: 0 in    
Historical Graphs
 
 
Tabular Data for May 2, 2019
Time Temperature Dew Point Pressure Wind Wind Speed Wind Gust Humidity Rainfall Rate (Hourly) solar
00:04 48 °F 42.13 °F 30.00 in Calm   1 mph 80% 0 in WeatherCatV3.04B91 W/m2
00:09 48 °F 42.13 °F 30.00 in Calm   2 mph 80% 0 in WeatherCatV3.04B91 W/m2
00:14 48 °F 42.13 °F 30.01 in Calm     80% 0 in WeatherCatV3.04B91 W/m2
00:19 47.9 °F 42.03 °F 30.01 in Calm   3 mph 80% 0 in WeatherCatV3.04B91 W/m2
00:24 47.9 °F 42.03 °F 30.01 in Calm   1 mph 80% 0 in WeatherCatV3.04B91 W/m2
00:29 47.7 °F 41.84 °F 30.02 in Calm     80% 0 in WeatherCatV3.04B91 W/m2
00:34 47.6 °F 42.06 °F 30.02 in Calm   2 mph 81% 0 in WeatherCatV3.04B91 W/m2
00:39 47.6 °F 42.06 °F 30.02 in Calm     81% 0 in WeatherCatV3.04B91 W/m2
00:44 47.6 °F 42.06 °F 30.02 in Calm   2 mph 81% 0 in WeatherCatV3.04B91 W/m2
00:49 47.4 °F 41.87 °F 30.02 in Calm     81% 0 in WeatherCatV3.04B91 W/m2
00:54 47.4 °F 41.87 °F 30.02 in Calm     81% 0 in WeatherCatV3.04B91 W/m2
00:59 47.4 °F 41.87 °F 30.01 in Calm     81% 0 in WeatherCatV3.04B91 W/m2
01:04 47.3 °F 41.77 °F 30.01 in Calm   3 mph 81% 0 in WeatherCatV3.04B91 W/m2
01:09 47.1 °F 41.89 °F 30.01 in Calm     82% 0 in WeatherCatV3.04B91 W/m2
01:14 47.1 °F 41.89 °F 30.01 in Calm     82% 0 in WeatherCatV3.04B91 W/m2
01:19 47 °F 41.79 °F 30.01 in Calm     82% 0 in WeatherCatV3.04B91 W/m2
01:24 47 °F 41.79 °F 30.01 in Calm     82% 0 in WeatherCatV3.04B91 W/m2
01:29 47 °F 42.11 °F 29.99 in Calm     83% 0 in WeatherCatV3.04B91 W/m2
01:34 46.8 °F 41.91 °F 29.99 in Calm     83% 0 in WeatherCatV3.04B91 W/m2
01:39 46.8 °F 41.91 °F 29.99 in Calm     83% 0 in WeatherCatV3.04B91 W/m2
01:44 46.7 °F 42.13 °F 29.98 in Calm     84% 0 in WeatherCatV3.04B91 W/m2
01:49 46.5 °F 41.93 °F 29.98 in Calm     84% 0 in WeatherCatV3.04B91 W/m2
01:54 46.5 °F 41.93 °F 29.98 in Calm     84% 0 in WeatherCatV3.04B91 W/m2
01:59 46.4 °F 42.14 °F 29.99 in Calm     85% 0 in WeatherCatV3.04B91 W/m2
02:04 46.4 °F 42.14 °F 29.99 in Calm     85% 0 in WeatherCatV3.04B91 W/m2
02:09 46.4 °F 42.44 °F 29.99 in Calm     86% 0 in WeatherCatV3.04B91 W/m2
02:14 46.2 °F 42.25 °F 30.00 in Calm     86% 0 in WeatherCatV3.04B91 W/m2
02:19 46.2 °F 42.55 °F 30.00 in Calm     87% 0 in WeatherCatV3.04B91 W/m2
02:24 46.2 °F 42.55 °F 30.00 in Calm     87% 0 in WeatherCatV3.04B91 W/m2
02:29 46.1 °F 42.45 °F 29.99 in Calm     87% 0 in WeatherCatV3.04B91 W/m2
02:34 46 °F 42.35 °F 29.99 in Calm     87% 0 in WeatherCatV3.04B91 W/m2
02:39 45.8 °F 42.15 °F 29.99 in Calm     87% 0 in WeatherCatV3.04B91 W/m2
02:44 45.7 °F 42.35 °F 30.01 in Calm     88% 0 in WeatherCatV3.04B91 W/m2
02:49 45.5 °F 42.15 °F 30.01 in Calm     88% 0 in WeatherCatV3.04B91 W/m2
02:54 45.4 °F 42.06 °F 30.01 in Calm     88% 0 in WeatherCatV3.04B91 W/m2
02:59 45.4 °F 42.35 °F 30.01 in Calm     89% 0 in WeatherCatV3.04B91 W/m2
03:04 45.2 °F 42.15 °F 30.01 in Calm     89% 0 in WeatherCatV3.04B91 W/m2
03:09 45.2 °F 42.15 °F 30.01 in Calm     89% 0 in WeatherCatV3.04B91 W/m2
03:14 45.2 °F 42.15 °F 30.00 in Calm     89% 0 in WeatherCatV3.04B91 W/m2
03:19 45.4 °F 42.64 °F 30.00 in Calm     90% 0 in WeatherCatV3.04B91 W/m2
03:24 45.4 °F 42.64 °F 30.00 in Calm     90% 0 in WeatherCatV3.04B91 W/m2
03:29 45.4 °F 42.64 °F 30.00 in Calm     90% 0 in WeatherCatV3.04B91 W/m2
03:34 45.2 °F 42.44 °F 30.00 in Calm     90% 0 in WeatherCatV3.04B91 W/m2
03:39 44.9 °F 42.15 °F 30.00 in Calm     90% 0 in WeatherCatV3.04B91 W/m2
03:44 44.8 °F 42.05 °F 30.00 in Calm     90% 0 in WeatherCatV3.04B91 W/m2
03:49 44.6 °F 41.85 °F 30.00 in Calm     90% 0 in WeatherCatV3.04B91 W/m2
03:54 44.3 °F 41.55 °F 30.00 in Calm     90% 0 in WeatherCatV3.04B91 W/m2
03:59 44.2 °F 41.46 °F 30.00 in Calm     90% 0 in WeatherCatV3.04B91 W/m2
04:04 44.2 °F 41.46 °F 30.00 in Calm     90% 0 in WeatherCatV3.04B91 W/m2
04:09 44.1 °F 41.36 °F 30.00 in Calm     90% 0 in WeatherCatV3.04B91 W/m2
04:14 43.9 °F 41.44 °F 30.01 in Calm     91% 0 in WeatherCatV3.04B91 W/m2
04:19 43.8 °F 41.35 °F 30.01 in Calm     91% 0 in WeatherCatV3.04B91 W/m2
04:24 43.8 °F 41.35 °F 30.01 in Calm     91% 0 in WeatherCatV3.04B91 W/m2
04:29 43.8 °F 41.35 °F 30.01 in Calm     91% 0 in WeatherCatV3.04B91 W/m2
04:34 43.8 °F 41.35 °F 30.01 in Calm     91% 0 in WeatherCatV3.04B91 W/m2
04:39 43.6 °F 41.15 °F 30.01 in Calm     91% 0 in WeatherCatV3.04B91 W/m2
04:44 43.6 °F 41.15 °F 30.02 in Calm     91% 0 in WeatherCatV3.04B91 W/m2
04:49 43.6 °F 41.15 °F 30.02 in Calm     91% 0 in WeatherCatV3.04B91 W/m2
04:54 43.6 °F 41.43 °F 30.02 in Calm     92% 0 in WeatherCatV3.04B91 W/m2
04:59 43.6 °F 41.43 °F 30.02 in Calm     92% 0 in WeatherCatV3.04B91 W/m2
05:04 43.6 °F 41.43 °F 30.02 in Calm     92% 0 in WeatherCatV3.04B91 W/m2
05:09 43.6 °F 41.43 °F 30.02 in Calm     92% 0 in WeatherCatV3.04B91 W/m2
05:14 43.6 °F 41.43 °F 30.03 in Calm     92% 0 in WeatherCatV3.04B91 W/m2
05:19 43.6 °F 41.43 °F 30.03 in Calm     92% 0 in WeatherCatV3.04B91 W/m2
05:24 43.6 °F 41.43 °F 30.03 in Calm     92% 0 in WeatherCatV3.04B91 W/m2
05:29 43.6 °F 41.43 °F 30.03 in Calm     92% 0 in WeatherCatV3.04B91 W/m2
05:34 43.6 °F 41.43 °F 30.03 in Calm     92% 0 in WeatherCatV3.04B91 W/m2
05:39 43.6 °F 41.43 °F 30.03 in Calm   3 mph 92% 0 in WeatherCatV3.04B91 W/m2
05:44 43.6 °F 41.43 °F 30.03 in Calm   2 mph 92% 0 in WeatherCatV3.04B91 W/m2
05:49 43.8 °F 41.63 °F 30.03 in Calm     92% 0 in WeatherCatV3.04B91 W/m2
05:54 43.8 °F 41.63 °F 30.03 in Calm     92% 0 in WeatherCatV3.04B91 W/m2
05:59 43.6 °F 41.43 °F 30.04 in Calm     92% 0 in WeatherCatV3.04B91 W/m2
06:04 43.6 °F 41.43 °F 30.04 in Calm   3 mph 92% 0 in WeatherCatV3.04B91 W/m2
06:09 43.5 °F 41.33 °F 30.04 in Calm     92% 0 in WeatherCatV3.04B91 W/m2
06:14 43.5 °F 41.33 °F 30.04 in Calm     92% 0 in WeatherCatV3.04B91 W/m2
06:19 43.3 °F 41.13 °F 30.04 in Calm     92% 0 in WeatherCatV3.04B91 W/m2
06:24 43.2 °F 41.03 °F 30.04 in Calm     92% 0 in WeatherCatV3.04B91 W/m2
06:29 43.1 °F 40.94 °F 30.05 in Calm     92% 0 in WeatherCatV3.04B91 W/m2
06:34 42.9 °F 40.74 °F 30.05 in Calm     92% 0 in WeatherCatV3.04B91 W/m2
06:39 42.8 °F 40.64 °F 30.05 in Calm     92% 0 in WeatherCatV3.04B91 W/m2
06:44 42.5 °F 40.34 °F 30.06 in Calm     92% 0 in WeatherCatV3.04B91 W/m2
06:49 42.5 °F 40.34 °F 30.06 in Calm     92% 0 in WeatherCatV3.04B91 W/m2
06:54 42.5 °F 40.34 °F 30.06 in Calm     92% 0 in WeatherCatV3.04B91 W/m2
06:59 42.5 °F 40.34 °F 30.06 in Calm     92% 0 in WeatherCatV3.04B91 W/m2
07:04 42.6 °F 40.44 °F 30.06 in Calm     92% 0 in WeatherCatV3.04B91 W/m2
07:09 42.6 °F 40.44 °F 30.06 in Calm     92% 0 in WeatherCatV3.04B91 W/m2
07:14 42.8 °F 40.92 °F 30.06 in Calm     93% 0 in WeatherCatV3.04B91 W/m2
07:19 42.8 °F 40.92 °F 30.06 in Calm     93% 0 in WeatherCatV3.04B91 W/m2
07:24 43.1 °F 41.22 °F 30.06 in Calm     93% 0 in WeatherCatV3.04B91 W/m2
07:29 43.5 °F 41.61 °F 30.06 in Calm     93% 0 in WeatherCatV3.04B91 W/m2
07:34 44.1 °F 42.21 °F 30.06 in Calm     93% 0 in WeatherCatV3.04B91 W/m2
07:39 44.2 °F 42.31 °F 30.06 in Calm     93% 0 in WeatherCatV3.04B91 W/m2
07:44 44.3 °F 42.4 °F 30.06 in Calm     93% 0 in WeatherCatV3.04B91 W/m2
07:49 44.5 °F 42.32 °F 30.06 in Calm   3 mph 92% 0 in WeatherCatV3.04B91 W/m2
07:54 44.6 °F 42.42 °F 30.06 in Calm     92% 0 in WeatherCatV3.04B91 W/m2
07:59 44.6 °F 42.42 °F 30.07 in Calm     92% 0 in WeatherCatV3.04B91 W/m2
08:04 44.6 °F 42.42 °F 30.07 in Calm     92% 0 in WeatherCatV3.04B91 W/m2
08:09 44.6 °F 42.14 °F 30.07 in Calm     91% 0 in WeatherCatV3.04B91 W/m2
08:14 44.8 °F 42.62 °F 30.06 in Calm     92% 0 in WeatherCatV3.04B91 W/m2
08:19 44.9 °F 42.43 °F 30.06 in Calm   3 mph 91% 0 in WeatherCatV3.04B91 W/m2
08:24 45.1 °F 42.63 °F 30.06 in Calm     91% 0 in WeatherCatV3.04B91 W/m2
08:29 45.1 °F 42.63 °F 30.06 in Calm   1 mph 91% 0 in WeatherCatV3.04B91 W/m2
08:34 45.2 °F 42.73 °F 30.06 in Calm     91% 0 in WeatherCatV3.04B91 W/m2
08:39 45.4 °F 42.64 °F 30.06 in Calm     90% 0 in WeatherCatV3.04B91 W/m2
08:44 45.5 °F 43.03 °F 30.06 in Calm   1 mph 91% 0 in WeatherCatV3.04B91 W/m2
08:49 45.8 °F 43.04 °F 30.06 in Calm     90% 0 in WeatherCatV3.04B91 W/m2
08:54 46.2 °F 43.43 °F 30.06 in Calm     90% 0 in WeatherCatV3.04B91 W/m2
08:59 46.7 °F 43.63 °F 30.06 in Calm     89% 0 in WeatherCatV3.04B91 W/m2
09:04 46.8 °F 43.44 °F 30.06 in Calm   3 mph 88% 0 in WeatherCatV3.04B91 W/m2
09:09 47.1 °F 43.43 °F 30.06 in Calm   1 mph 87% 0 in WeatherCatV3.04B91 W/m2
09:14 47.1 °F 43.13 °F 30.06 in Calm     86% 0 in WeatherCatV3.04B91 W/m2
09:19 47.3 °F 43.02 °F 30.06 in Calm   2 mph 85% 0 in WeatherCatV3.04B91 W/m2
09:24 47.7 °F 43.11 °F 30.06 in Calm     84% 0 in WeatherCatV3.04B91 W/m2
09:29 47.6 °F 42.06 °F 30.07 in Calm   2 mph 81% 0 in WeatherCatV3.04B91 W/m2
09:34 47.7 °F 42.16 °F 30.07 in Calm     81% 0 in WeatherCatV3.04B91 W/m2
09:39 48.6 °F 42.71 °F 30.07 in Calm     80% 0 in WeatherCatV3.04B91 W/m2
09:44 49.2 °F 42.64 °F 30.06 in Calm     78% 0 in WeatherCatV3.04B91 W/m2
09:49 49.5 °F 42.25 °F 30.06 in Calm   1 mph 76% 0 in WeatherCatV3.04B91 W/m2
09:54 49.9 °F 41.59 °F 30.06 in Calm   4 mph 73% 0 in WeatherCatV3.04B91 W/m2
09:59 50.5 °F 41.45 °F 30.05 in Calm   3 mph 71% 0 in WeatherCatV3.04B91 W/m2
10:04 50.4 °F 40.62 °F 30.05 in Calm   1 mph 69% 0 in WeatherCatV3.04B91 W/m2
10:09 49.9 °F 40.14 °F 30.05 in Calm   1 mph 69% 0 in WeatherCatV3.04B91 W/m2
10:14 49.6 °F 39.48 °F 30.06 in Calm     68% 0 in WeatherCatV3.04B91 W/m2
10:19 50.1 °F 39.57 °F 30.06 in Calm   2 mph 67% 0 in WeatherCatV3.04B91 W/m2
10:24 50.8 °F 41 °F 30.06 in Calm   1 mph 69% 0 in WeatherCatV3.04B91 W/m2
10:29 51.1 °F 40.53 °F 30.06 in North 1 mph 1 mph 67% 0 in WeatherCatV3.04B91 W/m2
10:34 51.6 °F 41 °F 30.06 in Calm     67% 0 in WeatherCatV3.04B91 W/m2
10:39 51.4 °F 39.63 °F 30.06 in Calm   5 mph 64% 0 in WeatherCatV3.04B91 W/m2
10:44 51.6 °F 39.82 °F 30.06 in Calm   1 mph 64% 0 in WeatherCatV3.04B91 W/m2
10:49 52.2 °F 40.79 °F 30.06 in Calm     65% 0 in WeatherCatV3.04B91 W/m2
10:54 52.2 °F 40.39 °F 30.06 in Calm     64% 0 in WeatherCatV3.04B91 W/m2
10:59 52.3 °F 40.49 °F 30.06 in Calm   3 mph 64% 0 in WeatherCatV3.04B91 W/m2
11:04 52 °F 39.39 °F 30.06 in Calm   1 mph 62% 0 in WeatherCatV3.04B91 W/m2
11:09 51.9 °F 39.29 °F 30.06 in Calm     62% 0 in WeatherCatV3.04B91 W/m2
11:14 52 °F 39.39 °F 30.07 in Calm   6 mph 62% 0 in WeatherCatV3.04B91 W/m2
11:19 52.5 °F 39.86 °F 30.07 in North 4 mph 6 mph 62% 0 in WeatherCatV3.04B91 W/m2
11:24 52.6 °F 39.11 °F 30.07 in Calm   4 mph 60% 0 in WeatherCatV3.04B91 W/m2
11:29 52.6 °F 38.68 °F 30.07 in NE 1 mph 1 mph 59% 0 in WeatherCatV3.04B91 W/m2
11:34 53.1 °F 39.58 °F 30.07 in Calm   2 mph 60% 0 in WeatherCatV3.04B91 W/m2
11:39 53.2 °F 39.25 °F 30.07 in Calm   4 mph 59% 0 in WeatherCatV3.04B91 W/m2
11:44 53.5 °F 39.96 °F 30.06 in Calm   7 mph 60% 0 in WeatherCatV3.04B91 W/m2
11:49 53.3 °F 39.34 °F 30.06 in Calm   5 mph 59% 0 in WeatherCatV3.04B91 W/m2
11:54 53.5 °F 39.09 °F 30.06 in North 3 mph 3 mph 58% 0 in WeatherCatV3.04B91 W/m2
11:59 53.6 °F 38.74 °F 30.05 in NE 3 mph 3 mph 57% 0 in WeatherCatV3.04B91 W/m2
12:04 53.6 °F 38.74 °F 30.05 in Calm   3 mph 57% 0 in WeatherCatV3.04B91 W/m2
12:09 54.2 °F 39.3 °F 30.05 in NNW 2 mph 5 mph 57% 0 in WeatherCatV3.04B91 W/m2
12:14 54.7 °F 39.77 °F 30.05 in Calm   1 mph 57% 0 in WeatherCatV3.04B91 W/m2
12:19 54.8 °F 38.48 °F 30.05 in Calm   4 mph 54% 0 in WeatherCatV3.04B91 W/m2
12:24 54.8 °F 39.41 °F 30.05 in Calm     56% 0 in WeatherCatV3.04B91 W/m2
12:29 55.1 °F 39.69 °F 30.05 in Calm     56% 0 in WeatherCatV3.04B91 W/m2
12:34 55.4 °F 39.5 °F 30.05 in Calm     55% 0 in WeatherCatV3.04B91 W/m2
12:39 55.9 °F 39.02 °F 30.05 in Calm   1 mph 53% 0 in WeatherCatV3.04B91 W/m2
12:44 55.9 °F 38.04 °F 30.05 in Calm   6 mph 51% 0 in WeatherCatV3.04B91 W/m2
12:49 55.9 °F 39.02 °F 30.05 in Calm   5 mph 53% 0 in WeatherCatV3.04B91 W/m2
12:54 55.9 °F 38.04 °F 30.05 in Calm   1 mph 51% 0 in WeatherCatV3.04B91 W/m2
12:59 55.9 °F 37.02 °F 30.04 in Calm   3 mph 49% 0 in WeatherCatV3.04B91 W/m2
13:04 55.6 °F 37.26 °F 30.04 in Calm   5 mph 50% 0 in WeatherCatV3.04B91 W/m2
13:09 55.7 °F 37.35 °F 30.04 in North 2 mph 5 mph 50% 0 in WeatherCatV3.04B91 W/m2
13:14 56 °F 37.62 °F 30.04 in Calm   2 mph 50% 0 in WeatherCatV3.04B91 W/m2
13:19 56.2 °F 37.3 °F 30.04 in Calm   2 mph 49% 0 in WeatherCatV3.04B91 W/m2
13:24 56.2 °F 38.31 °F 30.04 in Calm   4 mph 51% 0 in WeatherCatV3.04B91 W/m2
13:29 56.6 °F 38.18 °F 30.02 in Calm   2 mph 50% 0 in WeatherCatV3.04B91 W/m2
13:34 56.9 °F 38.96 °F 30.02 in Calm   2 mph 51% 0 in WeatherCatV3.04B91 W/m2
13:39 57.2 °F 39.24 °F 30.02 in Calm     51% 0 in WeatherCatV3.04B91 W/m2
13:44 57.5 °F 37.43 °F 30.02 in Calm   1 mph 47% 0 in WeatherCatV3.04B91 W/m2
13:49 57.6 °F 36.42 °F 30.02 in NNE 1 mph 3 mph 45% 0 in WeatherCatV3.04B91 W/m2
13:54 57.5 °F 37.96 °F 30.02 in ENE 2 mph 7 mph 48% 0 in WeatherCatV3.04B91 W/m2
13:59 57.2 °F 38.73 °F 30.01 in Calm   1 mph 50% 0 in WeatherCatV3.04B91 W/m2
14:04 57.5 °F 38.49 °F 30.01 in Calm   1 mph 49% 0 in WeatherCatV3.04B91 W/m2
14:09 57.5 °F 38.49 °F 30.01 in NE 1 mph 7 mph 49% 0 in WeatherCatV3.04B91 W/m2
14:14 57.5 °F 39.51 °F 30.00 in NNE 5 mph 5 mph 51% 0 in WeatherCatV3.04B91 W/m2
14:19 57.5 °F 37.96 °F 30.00 in NE 1 mph 1 mph 48% 0 in WeatherCatV3.04B91 W/m2
14:24 57.5 °F 37.96 °F 30.00 in East 5 mph 7 mph 48% 0 in WeatherCatV3.04B91 W/m2
14:29 57.6 °F 38.05 °F 30.00 in Calm   3 mph 48% 0 in WeatherCatV3.04B91 W/m2
14:34 58 °F 37.88 °F 30.00 in ENE 2 mph 6 mph 47% 0 in WeatherCatV3.04B91 W/m2
14:39 58.1 °F 37.98 °F 30.00 in Calm     47% 0 in WeatherCatV3.04B91 W/m2
14:44 58.1 °F 37.98 °F 29.99 in Calm   5 mph 47% 0 in WeatherCatV3.04B91 W/m2
14:49 58.3 °F 37.61 °F 29.99 in Calm   6 mph 46% 0 in WeatherCatV3.04B91 W/m2
14:54 58.1 °F 36.87 °F 29.99 in NE 1 mph 2 mph 45% 0 in WeatherCatV3.04B91 W/m2
14:59 58 °F 36.78 °F 29.99 in NE 1 mph 6 mph 45% 0 in WeatherCatV3.04B91 W/m2
15:04 58.1 °F 36.3 °F 29.99 in NE 2 mph 4 mph 44% 0 in WeatherCatV3.04B91 W/m2
15:09 58.3 °F 37.61 °F 29.99 in ENE 2 mph 2 mph 46% 0 in WeatherCatV3.04B91 W/m2
15:14 58.6 °F 36.17 °F 29.98 in NE 5 mph 9 mph 43% 0 in WeatherCatV3.04B91 W/m2
15:19 58.6 °F 34.97 °F 29.98 in East 2 mph 5 mph 41% 0 in WeatherCatV3.04B91 W/m2
15:24 58.6 °F 35.58 °F 29.98 in ENE 3 mph 3 mph 42% 0 in WeatherCatV3.04B91 W/m2
15:29 59 °F 35.33 °F 29.98 in Calm     41% 0 in WeatherCatV3.04B91 W/m2
15:34 59 °F 35.94 °F 29.98 in NNE 3 mph 4 mph 42% 0 in WeatherCatV3.04B91 W/m2
15:39 59 °F 35.94 °F 29.98 in Calm   6 mph 42% 0 in WeatherCatV3.04B91 W/m2
15:44 59 °F 34.71 °F 29.97 in Calm   4 mph 40% 0 in WeatherCatV3.04B91 W/m2
15:49 59 °F 34.71 °F 29.97 in Calm   4 mph 40% 0 in WeatherCatV3.04B91 W/m2
15:54 59.3 °F 34.35 °F 29.97 in ENE 1 mph 6 mph 39% 0 in WeatherCatV3.04B91 W/m2
15:59 59.3 °F 33.03 °F 29.97 in Calm   3 mph 37% 0 in WeatherCatV3.04B91 W/m2
16:04 59.5 °F 33.21 °F 29.97 in Calm   1 mph 37% 0 in WeatherCatV3.04B91 W/m2
16:09 59.8 °F 32.79 °F 29.97 in NE 3 mph 4 mph 36% 0 in WeatherCatV3.04B91 W/m2
16:14 59.9 °F 32.88 °F 29.97 in Calm   5 mph 36% 0 in WeatherCatV3.04B91 W/m2
16:19 59.9 °F 32.88 °F 29.97 in NE 5 mph 6 mph 36% 0 in WeatherCatV3.04B91 W/m2
16:24 59.8 °F 33.48 °F 29.97 in Calm   1 mph 37% 0 in WeatherCatV3.04B91 W/m2
16:29 60.1 °F 33.06 °F 29.96 in ENE 4 mph 6 mph 36% 0 in WeatherCatV3.04B91 W/m2
16:34 59.9 °F 30.73 °F 29.96 in Calm   3 mph 33% 0 in WeatherCatV3.04B91 W/m2
16:39 60.1 °F 30.9 °F 29.96 in ENE 4 mph 4 mph 33% 0 in WeatherCatV3.04B91 W/m2
16:44 60.2 °F 30.99 °F 29.95 in ENE 2 mph 7 mph 33% 0 in WeatherCatV3.04B91 W/m2
16:49 60.4 °F 30.41 °F 29.95 in NE 2 mph 5 mph 32% 0 in WeatherCatV3.04B91 W/m2
16:54 60.4 °F 28.83 °F 29.95 in Calm   4 mph 30% 0 in WeatherCatV3.04B91 W/m2
16:59 60.4 °F 29.63 °F 29.95 in ENE 1 mph 6 mph 31% 0 in WeatherCatV3.04B91 W/m2
17:04 60.4 °F 29.63 °F 29.95 in Calm   4 mph 31% 0 in WeatherCatV3.04B91 W/m2
17:09 60.4 °F 31.9 °F 29.95 in Calm   2 mph 34% 0 in WeatherCatV3.04B91 W/m2
17:14 60.4 °F 32.62 °F 29.95 in NE 2 mph 3 mph 35% 0 in WeatherCatV3.04B91 W/m2
17:19 60.4 °F 31.17 °F 29.95 in NNE 3 mph 5 mph 33% 0 in WeatherCatV3.04B91 W/m2
17:24 60.2 °F 31.73 °F 29.95 in Calm   1 mph 34% 0 in WeatherCatV3.04B91 W/m2
17:29 60.4 °F 32.62 °F 29.94 in NE 3 mph 3 mph 35% 0 in WeatherCatV3.04B91 W/m2
17:34 60.2 °F 31.73 °F 29.94 in NE 3 mph 5 mph 34% 0 in WeatherCatV3.04B91 W/m2
17:39 60.4 °F 34.01 °F 29.94 in Calm     37% 0 in WeatherCatV3.04B91 W/m2
17:44 60.7 °F 33.59 °F 29.94 in Calm     36% 0 in WeatherCatV3.04B91 W/m2
17:49 60.9 °F 33.77 °F 29.94 in Calm     36% 0 in WeatherCatV3.04B91 W/m2
17:53 60.9 °F 32.34 °F 29.94 in Calm     34% 0 in WeatherCatV3.04B91 W/m2
17:59 60.9 °F 33.77 °F 29.94 in Calm     36% 0 in WeatherCatV3.04B91 W/m2
18:03 61 °F 35.21 °F 29.94 in Calm     38% 0 in WeatherCatV3.04B91 W/m2
18:09 60.7 °F 32.89 °F 29.94 in Calm   4 mph 35% 0 in WeatherCatV3.04B91 W/m2
18:14 60.7 °F 33.59 °F 29.94 in Calm   3 mph 36% 0 in WeatherCatV3.04B91 W/m2
18:18 60.7 °F 32.89 °F 29.94 in Calm   3 mph 35% 0 in WeatherCatV3.04B91 W/m2
18:23 60.7 °F 33.59 °F 29.94 in Calm     36% 0 in WeatherCatV3.04B91 W/m2
18:29 60.9 °F 33.06 °F 29.94 in NE 1 mph 4 mph 35% 0 in WeatherCatV3.04B91 W/m2
18:34 60.7 °F 32.89 °F 29.94 in Calm   3 mph 35% 0 in WeatherCatV3.04B91 W/m2
18:38 60.7 °F 32.89 °F 29.94 in Calm     35% 0 in WeatherCatV3.04B91 W/m2
18:44 60.7 °F 32.89 °F 29.94 in Calm   2 mph 35% 0 in WeatherCatV3.04B91 W/m2
18:49 60.7 °F 32.17 °F 29.94 in Calm   2 mph 34% 0 in WeatherCatV3.04B91 W/m2
18:53 60.5 °F 31.99 °F 29.94 in Calm   2 mph 34% 0 in WeatherCatV3.04B91 W/m2
18:59 60.7 °F 32.17 °F 29.94 in Calm     34% 0 in WeatherCatV3.04B91 W/m2
19:04 60.7 °F 32.17 °F 29.94 in Calm     34% 0 in WeatherCatV3.04B91 W/m2
19:09 60.7 °F 32.17 °F 29.94 in Calm     34% 0 in WeatherCatV3.04B91 W/m2
19:13 60.7 °F 32.89 °F 29.94 in Calm     35% 0 in WeatherCatV3.04B91 W/m2
19:19 60.5 °F 31.99 °F 29.93 in Calm     34% 0 in WeatherCatV3.04B91 W/m2
19:24 60.2 °F 30.99 °F 29.93 in Calm     33% 0 in WeatherCatV3.04B91 W/m2
19:29 60.1 °F 31.64 °F 29.93 in Calm     34% 0 in WeatherCatV3.04B91 W/m2
19:35 59.8 °F 31.38 °F 29.93 in Calm     34% 0 in WeatherCatV3.04B91 W/m2
19:39 59.8 °F 31.38 °F 29.93 in Calm     34% 0 in WeatherCatV3.04B91 W/m2
19:44 59.6 °F 31.2 °F 29.93 in Calm   2 mph 34% 0 in WeatherCatV3.04B91 W/m2
19:49 59.5 °F 31.83 °F 29.94 in Calm     35% 0 in WeatherCatV3.04B91 W/m2
19:55 59.3 °F 33.03 °F 29.94 in Calm     37% 0 in WeatherCatV3.04B91 W/m2
20:00 59 °F 33.43 °F 29.94 in Calm     38% 0 in WeatherCatV3.04B91 W/m2
20:04 58.6 °F 33.72 °F 29.94 in Calm     39% 0 in WeatherCatV3.04B91 W/m2
20:10 58 °F 33.82 °F 29.94 in Calm     40% 0 in WeatherCatV3.04B91 W/m2
20:15 57.5 °F 33.98 °F 29.94 in Calm     41% 0 in WeatherCatV3.04B91 W/m2
20:19 57 °F 34.14 °F 29.94 in Calm     42% 0 in WeatherCatV3.04B91 W/m2
20:24 56.6 °F 34.37 °F 29.94 in Calm     43% 0 in WeatherCatV3.04B91 W/m2
20:29 56.3 °F 34.67 °F 29.94 in Calm     44% 0 in WeatherCatV3.04B91 W/m2
20:35 56 °F 35.51 °F 29.95 in Calm     46% 0 in WeatherCatV3.04B91 W/m2
20:39 55.9 °F 35.42 °F 29.95 in Calm     46% 0 in WeatherCatV3.04B91 W/m2
20:44 55.7 °F 35.78 °F 29.95 in Calm     47% 0 in WeatherCatV3.04B91 W/m2
20:49 55.6 °F 35.69 °F 29.95 in Calm     47% 0 in WeatherCatV3.04B91 W/m2
20:54 55.4 °F 36.04 °F 29.95 in Calm     48% 0 in WeatherCatV3.04B91 W/m2
20:59 55.3 °F 35.95 °F 29.95 in Calm     48% 0 in WeatherCatV3.04B91 W/m2
21:05 55.3 °F 36.47 °F 29.95 in Calm     49% 0 in WeatherCatV3.04B91 W/m2
21:09 55.3 °F 36.98 °F 29.95 in Calm     50% 0 in WeatherCatV3.04B91 W/m2
21:14 55.1 °F 37.3 °F 29.95 in Calm     51% 0 in WeatherCatV3.04B91 W/m2
21:19 55 °F 36.7 °F 29.94 in Calm     50% 0 in WeatherCatV3.04B91 W/m2
21:24 54.8 °F 36.52 °F 29.94 in Calm     50% 0 in WeatherCatV3.04B91 W/m2
21:29 54.8 °F 36.52 °F 29.94 in Calm     50% 0 in WeatherCatV3.04B91 W/m2
21:34 54.8 °F 36.52 °F 29.95 in Calm     50% 0 in WeatherCatV3.04B91 W/m2
21:39 54.7 °F 36.43 °F 29.95 in Calm     50% 0 in WeatherCatV3.04B91 W/m2
21:44 54.7 °F 36.93 °F 29.95 in Calm     51% 0 in WeatherCatV3.04B91 W/m2
21:49 54.7 °F 37.42 °F 29.95 in Calm     52% 0 in WeatherCatV3.04B91 W/m2
21:54 54.5 °F 37.24 °F 29.95 in Calm     52% 0 in WeatherCatV3.04B91 W/m2
21:59 54.4 °F 37.15 °F 29.95 in Calm     52% 0 in WeatherCatV3.04B91 W/m2
22:04 54.4 °F 37.63 °F 29.95 in Calm     53% 0 in WeatherCatV3.04B91 W/m2
22:09 54.1 °F 37.83 °F 29.95 in Calm     54% 0 in WeatherCatV3.04B91 W/m2
22:14 53.9 °F 37.64 °F 29.95 in Calm     54% 0 in WeatherCatV3.04B91 W/m2
22:19 53.6 °F 37.83 °F 29.95 in Calm     55% 0 in WeatherCatV3.04B91 W/m2
22:24 53.5 °F 37.74 °F 29.95 in Calm     55% 0 in WeatherCatV3.04B91 W/m2
22:29 53.2 °F 38.37 °F 29.95 in Calm     57% 0 in WeatherCatV3.04B91 W/m2
22:34 53.1 °F 38.27 °F 29.95 in Calm     57% 0 in WeatherCatV3.04B91 W/m2
22:39 52.8 °F 37.99 °F 29.95 in Calm     57% 0 in WeatherCatV3.04B91 W/m2
22:44 52.6 °F 37.8 °F 29.95 in Calm     57% 0 in WeatherCatV3.04B91 W/m2
22:49 52.3 °F 37.97 °F 29.94 in Calm     58% 0 in WeatherCatV3.04B91 W/m2
22:54 52 °F 38.12 °F 29.94 in Calm     59% 0 in WeatherCatV3.04B91 W/m2
22:59 51.7 °F 37.84 °F 29.94 in Calm     59% 0 in WeatherCatV3.04B91 W/m2
23:04 51.6 °F 38.17 °F 29.94 in Calm     60% 0 in WeatherCatV3.04B91 W/m2
23:09 51.4 °F 37.98 °F 29.94 in Calm     60% 0 in WeatherCatV3.04B91 W/m2
23:14 51.3 °F 38.31 °F 29.94 in Calm     61% 0 in WeatherCatV3.04B91 W/m2
23:19 51 °F 38.03 °F 29.94 in Calm     61% 0 in WeatherCatV3.04B91 W/m2
23:24 50.8 °F 38.25 °F 29.94 in Calm     62% 0 in WeatherCatV3.04B91 W/m2
23:29 50.7 °F 38.16 °F 29.94 in Calm     62% 0 in WeatherCatV3.04B91 W/m2
23:34 50.5 °F 37.97 °F 29.94 in Calm     62% 0 in WeatherCatV3.04B91 W/m2
23:39 50.4 °F 37.88 °F 29.94 in Calm     62% 0 in WeatherCatV3.04B91 W/m2
23:44 50.2 °F 38.5 °F 29.94 in Calm     64% 0 in WeatherCatV3.04B91 W/m2
23:49 50.1 °F 38.4 °F 29.94 in Calm     64% 0 in WeatherCatV3.04B91 W/m2
23:54 49.9 °F 38.21 °F 29.94 in Calm     64% 0 in WeatherCatV3.04B91 W/m2
23:59 49.9 °F 38.21 °F 29.94 in Calm     64% 0 in WeatherCatV3.04B91 W/m2
Bellevue, Nebraska, USA
Compliments of Weather Underground - 3.25 mb